Terminal Aerodrome Forecast
Issued by NWS

Current Version | Previous Version | Text Only | Print | Product List | Glossary On
Versions: 1 2 3 4 5 6 7 8 9 10 11 12 13 14 15 16
198
FTUS43 KMPX 191120
TAFRNH
TAF
KRNH 191120Z 1912/2012 13006KT P6SM OVC015
     FM191600 14009KT P6SM BKN020
     FM191900 14011G17KT P6SM SCT025
     FM200400 14015G22KT P6SM VCSH SCT030 BKN070 WS018/16050KT
     FM201000 16013G20KT 6SM -SHRA SCT020 BKN030=

USA.gov is the U.S. government's official web portal to all federal, state and local government web resources and services.